createdAt,value
2022-09-17T00:02:24.287Z,91.27
2022-09-17T00:08:58.457Z,92.18
2022-09-17T00:13:02.143Z,92.79
2022-09-17T00:18:21.521Z,92.86
2022-09-17T00:23:40.651Z,92.63
2022-09-17T00:28:59.611Z,92.07
2022-09-17T00:34:18.306Z,91.79
2022-09-17T00:39:37.646Z,91.97
2022-09-17T00:44:56.976Z,91.94
2022-09-17T00:50:15.928Z,91.77
2022-09-17T00:55:35.820Z,91.25
2022-09-17T01:00:54.813Z,90.97
2022-09-17T01:06:13.531Z,91.23
2022-09-17T01:11:32.260Z,91.06
2022-09-17T01:16:52.491Z,91
2022-09-17T01:23:26.662Z,90.75
2022-09-17T01:27:45.078Z,90.73
2022-09-17T01:32:48.803Z,91.06
2022-09-17T01:38:08.215Z,90.93
2022-09-17T01:43:35.775Z,90.99
2022-09-17T01:48:47.676Z,90.64
2022-09-17T01:54:05.458Z,90.58
2022-09-17T01:59:24.664Z,90.14
2022-09-17T02:04:43.992Z,90.39
2022-09-17T02:10:02.560Z,90.14
2022-09-17T02:15:22.118Z,90.29
2022-09-17T02:20:41.173Z,90.05
2022-09-17T02:26:00.595Z,90.17
2022-09-17T02:31:19.659Z,90.45
2022-09-17T02:36:39.676Z,90.57
2022-09-17T02:41:59.312Z,91.1
2022-09-17T02:47:28.008Z,91.75
2022-09-17T02:52:37.604Z,92.39
2022-09-17T02:57:57.086Z,93.2
2022-09-17T03:03:17.062Z,93.51
2022-09-17T03:08:36.211Z,93.51
2022-09-17T03:13:56.124Z,93.42
2022-09-17T03:20:30.298Z,93.13
2022-09-17T03:24:34.521Z,92.72
2022-09-17T03:31:33.159Z,92.43
2022-09-17T03:40:33.546Z,92.41
2022-09-17T03:45:50.315Z,91.84
2022-09-17T03:51:09.167Z,91.87
2022-09-17T03:56:37.486Z,91.74
2022-09-17T04:01:56.330Z,91.62
2022-09-17T04:07:07.822Z,91.81
2022-09-17T04:12:26.947Z,91.39
2022-09-17T04:18:22.503Z,91.55
2022-09-17T04:23:05.597Z,91.33
2022-09-17T04:28:24.893Z,91.23
2022-09-17T04:33:53.326Z,91.26
2022-09-17T04:39:04.793Z,91.02
2022-09-17T04:44:23.613Z,91.04
2022-09-17T04:49:43.198Z,90.86
2022-09-17T04:55:02.378Z,90.76
2022-09-17T05:00:21.561Z,90.62
2022-09-17T05:05:49.353Z,90.72
2022-09-17T05:12:04.579Z,91.28
2022-09-17T05:16:29.937Z,92.37
2022-09-17T05:21:37.970Z,93.95
2022-09-17T05:26:58.087Z,95.23
2022-09-17T05:32:16.570Z,96
2022-09-17T05:37:36.239Z,96.5
2022-09-17T05:42:55.523Z,96.99
2022-09-17T05:48:14.674Z,97.43
2022-09-17T05:53:34.087Z,97.69
2022-09-17T05:58:53.508Z,97.89
2022-09-17T06:04:12.361Z,98.01
2022-09-17T06:09:31.162Z,98.12
2022-09-17T06:14:50.848Z,98.3
2022-09-17T06:20:10.167Z,98.32
2022-09-17T06:25:30.017Z,98.37
2022-09-17T06:30:48.902Z,98.38
2022-09-17T06:36:11.025Z,98.46
2022-09-17T06:41:27.470Z,98.47
2022-09-17T06:46:46.713Z,98.4
2022-09-17T06:52:05.587Z,98.4
2022-09-17T06:57:24.826Z,98.19
2022-09-17T07:02:43.946Z,98.01
2022-09-17T07:08:03.339Z,97.82
2022-09-17T07:13:22.220Z,97.59
2022-09-17T07:18:41.769Z,96.79
2022-09-17T07:24:01.449Z,96.27
2022-09-17T07:29:20.410Z,95.71
2022-09-17T07:34:40.060Z,95.02
2022-09-17T07:39:59.527Z,94.81
2022-09-17T07:45:18.897Z,95.24
2022-09-17T07:50:38.146Z,94.78
2022-09-17T07:55:57.726Z,93.91
2022-09-17T08:01:16.690Z,93.47
2022-09-17T08:06:35.358Z,92.63
2022-09-17T08:11:56.285Z,91.31
2022-09-17T08:17:13.915Z,91.39
2022-09-17T08:22:33.295Z,90.92
2022-09-17T08:27:52.539Z,90.41
2022-09-17T08:33:11.714Z,89.79
2022-09-17T08:38:34.523Z,89.98
2022-09-17T08:43:50.186Z,90.16
2022-09-17T08:49:09.886Z,90.01
2022-09-17T08:54:28.956Z,88.72
2022-09-17T08:59:48.651Z,90.87
2022-09-17T09:05:07.706Z,90.19
2022-09-17T09:10:27.379Z,86.35
2022-09-17T09:15:46.317Z,87.75
2022-09-17T09:21:06.494Z,88.44
2022-09-17T09:26:25.433Z,85.72
2022-09-17T09:31:44.357Z,83.17
2022-09-17T09:37:04.559Z,77.76
2022-09-17T09:42:23.886Z,75.83
2022-09-17T09:47:43.217Z,73.65
2022-09-17T09:53:02.001Z,75.9
2022-09-17T09:58:21.256Z,76.37
2022-09-17T10:04:55.366Z,79.5
2022-09-17T10:16:01.995Z,74.31
2022-09-17T10:21:21.195Z,74
2022-09-17T10:26:39.987Z,75.21
2022-09-17T10:31:58.571Z,69.62
2022-09-17T10:37:18.128Z,67.83
2022-09-17T10:42:45.183Z,69.51
2022-09-17T10:47:55.087Z,71.51
2022-09-17T10:53:14.108Z,70.91
2022-09-17T10:58:33.100Z,71.53
2022-09-17T11:03:53.013Z,66.12
2022-09-17T11:09:11.968Z,66.99
2022-09-17T11:15:48.570Z,63.24
2022-09-17T11:25:11.032Z,61.23
2022-09-17T11:30:29.492Z,60.24
2022-09-17T11:37:28.124Z,60.82
2022-09-17T11:41:08.337Z,59.75
2022-09-17T11:46:27.540Z,59.18
2022-09-17T11:53:01.613Z,62.63
2022-09-17T12:02:26.639Z,59.65
2022-09-17T12:07:44.189Z,59.84
2022-09-17T12:14:42.772Z,70.19
2022-09-17T12:23:42.262Z,84.51
2022-09-17T12:29:09.115Z,83.41
2022-09-17T12:34:20.239Z,81.87
2022-09-17T12:39:39.145Z,76.33
2022-09-17T12:44:59.165Z,73.48
2022-09-17T12:50:18.240Z,74.08
2022-09-17T12:55:37.268Z,71.64
2022-09-17T13:00:57.005Z,64.66
2022-09-17T13:07:31.096Z,61.51
2022-09-17T13:11:35.920Z,59.35
2022-09-17T13:16:54.091Z,61.21
2022-09-17T13:22:13.792Z,58.83
2022-09-17T13:28:48.053Z,59.11
2022-09-17T13:33:02.593Z,60.97
2022-09-17T13:38:12.341Z,60.21
2022-09-17T13:43:31.224Z,59.58
2022-09-17T13:48:50.909Z,60.43
2022-09-17T13:54:18.029Z,60.05
2022-09-17T13:59:28.046Z,58.81
2022-09-17T14:04:47.361Z,58.32
2022-09-17T14:10:06.530Z,59.65
2022-09-17T14:15:26.029Z,62.15
2022-09-17T14:20:45.567Z,61.84
2022-09-17T14:26:03.755Z,61.44
2022-09-17T14:31:22.873Z,61.86
2022-09-17T14:36:43.162Z,60.51
2022-09-17T14:42:01.598Z,62.65
2022-09-17T14:47:21.695Z,64.06
2022-09-17T14:53:55.867Z,62.87
2022-09-17T14:58:12.395Z,64.07
2022-09-17T15:03:20.796Z,63.6
2022-09-17T15:08:39.023Z,63.85
2022-09-17T15:13:58.474Z,64.66
2022-09-17T15:19:17.950Z,60.86
2022-09-17T15:24:37.420Z,58.76
2022-09-17T15:29:56.293Z,58.07
2022-09-17T15:35:15.219Z,61.79
2022-09-17T15:40:35.047Z,60.77
2022-09-17T15:45:55.155Z,60.56
2022-09-17T15:51:14.096Z,60.63
2022-09-17T15:56:33.545Z,63.03
2022-09-17T16:01:52.899Z,63.97
2022-09-17T16:07:12.111Z,63.4
2022-09-17T16:12:31.778Z,64.66
2022-09-17T16:17:51.237Z,65.33
2022-09-17T16:23:10.641Z,66.67
2022-09-17T16:28:29.711Z,65.49
2022-09-17T16:33:49.200Z,64.66
2022-09-17T16:40:23.464Z,64.82
2022-09-17T16:44:40.757Z,74.49
2022-09-17T16:53:05.052Z,76.82
2022-09-17T16:55:07.975Z,78.06
2022-09-17T17:00:25.765Z,77.85
2022-09-17T17:05:44.533Z,78.51
2022-09-17T17:11:03.673Z,80.46
2022-09-17T17:16:23.250Z,82.06
2022-09-17T17:21:46.467Z,84.42
2022-09-17T17:27:01.848Z,84.63
2022-09-17T17:32:21.255Z,85.14
2022-09-17T17:37:40.773Z,84.11
2022-09-17T17:44:14.933Z,84.25
2022-09-17T17:48:19.488Z,84.3
2022-09-17T17:53:38.994Z,84.73
2022-09-17T18:00:13.161Z,82.21
2022-09-17T18:04:18.711Z,81.91
2022-09-17T18:09:37.851Z,83.48
2022-09-17T18:14:57.341Z,86.59
2022-09-17T18:20:17.047Z,87.66
2022-09-17T18:28:50.168Z,87.71
2022-09-17T18:33:04.782Z,88.44
2022-09-17T18:41:32.579Z,89.19
2022-09-17T18:46:51.739Z,89.61
2022-09-17T18:52:10.541Z,89.9
2022-09-17T18:57:30.415Z,89.67
2022-09-17T19:02:57.469Z,89.87
2022-09-17T19:08:09.243Z,89.62
2022-09-17T19:13:28.214Z,89.61
2022-09-17T19:18:46.966Z,89.5
2022-09-17T19:24:05.831Z,89.7
2022-09-17T19:29:25.240Z,89.54
2022-09-17T19:34:44.962Z,88.65
2022-09-17T19:40:04.838Z,88.3
2022-09-17T19:45:23.963Z,88.05
2022-09-17T19:50:42.734Z,88.21
2022-09-17T19:56:01.137Z,87.47
2022-09-17T20:01:21.209Z,87.64
2022-09-17T20:06:39.388Z,88.06
2022-09-17T20:18:33.414Z,87.54
2022-09-17T20:22:39.413Z,87.75
2022-09-17T20:31:12.534Z,87.33
2022-09-17T20:39:45.546Z,87.82
2022-09-17T20:43:56.270Z,86.77
2022-09-17T20:50:54.861Z,85.87
2022-09-17T20:55:09.459Z,85.98
2022-09-17T20:59:54.031Z,86.56
2022-09-17T21:05:12.167Z,86.5
2022-09-17T21:10:31.940Z,85.4
2022-09-17T21:15:51.888Z,84.92
2022-09-17T21:21:11.208Z,84.44
2022-09-17T21:27:45.322Z,84.48
2022-09-17T21:37:10.419Z,85.78
2022-09-17T21:43:04.178Z,86.44
2022-09-17T21:47:55.827Z,86.47
2022-09-17T21:53:05.402Z,86.5
2022-09-17T21:58:24.499Z,86.82
2022-09-17T22:03:43.437Z,87.4
2022-09-17T22:09:03.142Z,87.92
2022-09-17T22:14:22.752Z,88.03
2022-09-17T22:20:56.916Z,87.36
2022-09-17T22:25:12.350Z,87.34
2022-09-17T22:30:20.443Z,87.19
2022-09-17T22:35:39.764Z,86.98
2022-09-17T22:42:13.940Z,87.3
2022-09-17T22:51:39.352Z,88.01
2022-09-17T23:00:12.474Z,88.22
2022-09-17T23:04:27.841Z,88.37
2022-09-17T23:07:36.098Z,88.25
2022-09-17T23:12:54.803Z,88.47
2022-09-17T23:18:14.547Z,88.74
2022-09-17T23:23:34.614Z,89.03
2022-09-17T23:28:53.084Z,88.96
2022-09-17T23:34:12.615Z,88.69
2022-09-17T23:39:30.837Z,88.99
2022-09-17T23:44:50.624Z,89.09
2022-09-17T23:50:10.622Z,89.46
2022-09-17T23:55:28.918Z,89.93
